Galvin, Washington
Current Conditions -  °F | °C
As of 5:55 AM on Thursday 23 Oct 2014 (Local Time) from KCLS Reporting Station
Light Rain Light Rain  
Wind Chill: 54°   Ceiling: 2600
Heat Index: 54°   Visibility: 4mi
Dew Point: 52°   Wind: 0mph
Humidity: 94%   Direction: NA
Pressure: 29.76"   Gusts: NA
Location:  46.74°N, 123.03°W
Report Text: KCLS 231255Z AUTO 00000KT 4SM -RA SCT007 BKN026 OVC045 12/11 A2976 RMK AO2
Loading
Personal Weather Stations






























Interactive Weather Map
Tropical Storm Tracking
New forecast layout! Learn more

10-Day Weather Forecast

Advertisements
Track Severe Weather on mobile